Time;durP1;ratioP1;P1;durP2;ratioP2;P2;SDS_P1;SDS_P2;PMS_P1;PMS_P2;Temp;Humidity;BMP_temperature;BMP_pressure;BME280_temperature;BME280_humidity;BME280_pressure;Samples;Min_cycle;Max_cycle;Signal;HPM_P1;HPM_P2
2022/01/26 00:06:36;;;;;;;;;;;0.20;99.90;;;;;;5029734;28;20075;-76
2022/01/26 00:09:03;;;;;;;28.08;14.93;;;0.30;99.90;;;;;;5028380;28;19916;-77
2022/01/26 00:11:31;;;;;;;30.17;14.40;;;0.30;99.90;;;;;;5035239;28;20215;-77
2022/01/26 00:13:58;;;;;;;31.63;17.58;;;0.30;99.90;;;;;;5033476;28;20072;-77
2022/01/26 00:16:37;;;;;;;30.67;16.10;;;0.40;99.90;;;;;;5031554;28;20850;-77
2022/01/26 00:19:04;;;;;;;28.98;15.00;;;0.40;99.90;;;;;;5030563;28;20020;-77
2022/01/26 00:21:40;;;;;;;27.92;15.73;;;0.40;99.90;;;;;;5028839;28;20026;-77
2022/01/26 00:24:24;;;;;;;27.50;14.88;;;0.40;99.90;;;;;;5027878;28;20024;-77
2022/01/26 00:29:29;;;;;;;33.97;16.20;;;0.30;99.90;;;;;;5027646;28;20033;-77
2022/01/26 00:40:13;;;;;;;31.35;16.08;;;0.30;99.90;;;;;;5030567;28;20059;-77
2022/01/26 00:42:41;;;;;;;28.92;14.80;;;0.20;99.90;;;;;;5027717;28;20072;-77
2022/01/26 00:45:08;;;;;;;34.17;15.98;;;0.20;99.90;;;;;;5028167;28;20112;-77
2022/01/26 00:47:34;;;;;;;31.10;15.40;;;0.20;99.90;;;;;;5019624;28;20037;-77
2022/01/26 00:50:06;;;;;;;30.00;14.73;;;0.20;99.90;;;;;;5028978;28;20657;-77
2022/01/26 00:52:41;;;;;;;28.35;14.00;;;0.20;99.90;;;;;;5025580;28;20310;-76
2022/01/26 00:55:09;;;;;;;27.90;14.00;;;0.10;99.90;;;;;;5031519;28;20033;-76
2022/01/26 00:57:35;;;;;;;25.77;14.88;;;0.10;99.90;;;;;;5028489;28;20025;-78
2022/01/26 01:00:03;;;;;;;26.70;14.73;;;0.20;99.90;;;;;;5027748;28;20059;-77
2022/01/26 01:02:31;;;;;;;27.48;15.70;;;0.10;99.90;;;;;;5028049;28;20025;-76
2022/01/26 01:04:59;;;;;;;30.17;14.93;;;0.10;99.90;;;;;;5019566;28;20083;-76
2022/01/26 01:07:25;;;;;;;27.65;14.43;;;0.10;99.90;;;;;;5027449;28;20032;-77
2022/01/26 01:09:51;;;;;;;30.92;15.35;;;0.10;99.90;;;;;;5030766;28;20026;-76
2022/01/26 01:12:17;;;;;;;31.65;15.27;;;0.10;99.90;;;;;;5031026;28;20032;-77
2022/01/26 01:14:44;;;;;;;34.05;16.60;;;0.10;99.90;;;;;;5030195;28;20021;-77
2022/01/26 01:17:20;;;;;;;31.48;14.50;;;0.10;99.90;;;;;;5026690;28;20030;-76
2022/01/26 01:20:03;;;;;;;28.65;13.60;;;0.10;99.90;;;;;;5027834;28;20026;-78
2022/01/26 01:22:51;;;;;;;30.00;15.10;;;0.10;99.90;;;;;;5027822;28;20029;-78
2022/01/26 01:30:37;;;;;;;30.98;16.23;;;0.00;99.90;;;;;;5031226;28;20109;-76
2022/01/26 01:33:13;;;;;;;27.02;14.43;;;0.00;99.90;;;;;;5031971;28;20069;-76
2022/01/26 01:35:42;;;;;;;24.17;14.25;;;-0.10;99.90;;;;;;5027717;28;20449;-77
2022/01/26 01:38:11;;;;;;;28.35;14.30;;;0.00;99.90;;;;;;5028010;28;20025;-76
2022/01/26 01:40:39;;;;;;;27.30;14.20;;;-0.10;99.90;;;;;;5027916;28;20059;-77
2022/01/26 01:43:06;;;;;;;29.25;15.40;;;0.00;99.90;;;;;;5030096;28;20025;-77
2022/01/26 01:45:48;;;;;;;33.05;16.00;;;-0.10;99.90;;;;;;5028116;28;20046;-77
2022/01/26 01:48:19;;;;;;;29.55;15.27;;;-0.10;99.90;;;;;;5030981;28;20083;-79
2022/01/26 01:50:45;;;;;;;27.50;14.60;;;-0.10;99.90;;;;;;5027679;28;20061;-79
2022/01/26 01:53:15;;;;;;;27.33;14.98;;;-0.10;99.90;;;;;;5030728;28;20034;-78
2022/01/26 01:55:43;;;;;;;26.58;14.43;;;-0.20;99.90;;;;;;5026594;28;20093;-79
2022/01/26 01:58:10;;;;;;;28.50;14.43;;;-0.10;99.90;;;;;;5029854;28;20045;-79
2022/01/26 02:00:36;;;;;;;29.48;13.88;;;-0.20;99.90;;;;;;5027670;28;20034;-77
2022/01/26 02:03:03;;;;;;;30.35;15.93;;;-0.10;99.90;;;;;;5025939;28;20033;-77
2022/01/26 02:05:29;;;;;;;25.77;14.50;;;-0.20;99.90;;;;;;5018545;28;20029;-77
2022/01/26 02:07:55;;;;;;;25.75;13.30;;;-0.20;99.90;;;;;;5033899;28;20024;-78
2022/01/26 02:10:23;;;;;;;29.88;14.85;;;-0.30;99.90;;;;;;5031637;28;20029;-76
2022/01/26 02:12:58;;;;;;;26.00;14.25;;;-0.60;99.90;;;;;;5029037;28;20018;-77
2022/01/26 02:15:32;;;;;;;30.20;13.07;;;-0.40;99.90;;;;;;5027705;28;20029;-77
2022/01/26 02:55:35;;;;;;;20.33;11.45;;;-0.10;99.90;;;;;;5031172;28;20026;-76
2022/01/26 03:03:32;;;;;;;23.83;12.27;;;0.00;99.90;;;;;;5029860;28;20033;-76
2022/01/26 03:06:03;;;;;;;21.80;12.05;;;0.00;99.90;;;;;;5025111;28;20116;-76
2022/01/26 03:08:55;;;;;;;;;;;-0.10;99.90;;;;;;5029213;28;20029;-76
2022/01/26 03:11:15;;;;;;;23.20;10.95;;;-0.10;99.90;;;;;;5030182;28;19909;-76
2022/01/26 03:13:49;;;;;;;21.50;12.18;;;0.00;99.90;;;;;;5029920;28;20442;-76
2022/01/26 03:16:40;;;;;;;21.00;11.05;;;0.00;99.90;;;;;;5031230;28;20014;-76
2022/01/26 03:19:21;;;;;;;31.92;13.85;;;0.00;99.90;;;;;;5031564;28;20072;-76
2022/01/26 03:28:04;;;;;;;27.17;12.07;;;0.00;99.90;;;;;;5032891;28;20077;-75
2022/01/26 03:30:45;;;;;;;26.00;12.57;;;-0.20;99.90;;;;;;5029410;28;20033;-75
2022/01/26 03:38:06;;;;;;;27.08;11.95;;;-0.30;99.90;;;;;;5029875;28;20264;-75
2022/01/26 03:40:35;;;;;;;29.13;12.73;;;-0.40;99.90;;;;;;5028356;28;20033;-75
2022/01/26 03:43:01;;;;;;;31.48;13.20;;;-0.40;99.90;;;;;;5031487;28;20072;-75
2022/01/26 03:45:27;;;;;;;25.65;12.70;;;-0.50;99.90;;;;;;5029331;28;20056;-75
2022/01/26 03:47:54;;;;;;;30.90;13.10;;;-0.50;99.90;;;;;;5035042;28;20063;-75
2022/01/26 03:50:21;;;;;;;28.45;13.15;;;-0.50;99.90;;;;;;5028750;28;20032;-75
2022/01/26 03:52:47;;;;;;;28.02;13.13;;;-0.60;99.90;;;;;;5028516;28;20106;-75
2022/01/26 03:55:12;;;;;;;34.00;15.10;;;-0.50;99.90;;;;;;5031054;28;20526;-75
2022/01/26 03:57:38;;;;;;;31.73;13.75;;;-0.50;99.90;;;;;;5029909;28;20029;-75
2022/01/26 04:00:07;;;;;;;25.33;12.82;;;-0.50;99.90;;;;;;5028572;28;20394;-75
2022/01/26 04:02:34;;;;;;;30.83;12.40;;;-0.50;99.90;;;;;;5028733;28;20018;-75
2022/01/26 04:05:02;;;;;;;30.02;14.75;;;-0.50;99.90;;;;;;5028778;28;20033;-75
2022/01/26 04:07:28;;;;;;;22.77;12.35;;;-0.60;99.90;;;;;;5027162;28;20028;-75
2022/01/26 04:10:01;;;;;;;28.90;11.93;;;-0.40;99.90;;;;;;5030551;28;20025;-75
2022/01/26 04:12:27;;;;;;;24.25;12.23;;;-0.40;99.90;;;;;;5028769;28;20068;-75
2022/01/26 04:14:59;;;;;;;22.65;11.73;;;-0.40;99.90;;;;;;5028090;28;20017;-75
2022/01/26 04:17:25;;;;;;;21.80;11.07;;;-0.60;99.90;;;;;;5027302;28;20510;-75
2022/01/26 04:19:55;;;;;;;23.85;10.90;;;-0.60;99.90;;;;;;5028947;28;20025;-74
2022/01/26 04:22:28;;;;;;;25.10;10.85;;;-0.60;99.90;;;;;;5027768;28;20175;-74
2022/01/26 04:24:54;;;;;;;24.67;10.82;;;-0.60;99.90;;;;;;5028812;28;20434;-75
2022/01/26 04:29:48;;;;;;;26.55;11.57;;;-0.70;99.90;;;;;;5028144;28;20026;-74
2022/01/26 04:32:15;;;;;;;23.92;10.57;;;-0.60;99.90;;;;;;5028638;28;20115;-75
2022/01/26 04:34:41;;;;;;;25.35;11.05;;;-0.70;99.90;;;;;;5041818;28;20029;-75
2022/01/26 04:40:06;;;;;;;22.65;10.52;;;-0.70;99.90;;;;;;5029327;28;20095;-75
2022/01/26 04:42:43;;;;;;;21.80;9.88;;;-0.60;99.90;;;;;;5029264;28;20063;-74
2022/01/26 04:45:11;;;;;;;20.00;10.57;;;-0.60;99.90;;;;;;5031940;28;20033;-74
2022/01/26 04:47:38;;;;;;;28.55;10.85;;;-0.70;99.90;;;;;;5034161;28;20528;-75
2022/01/26 04:50:06;;;;;;;19.90;10.65;;;-0.50;99.90;;;;;;5027276;28;20033;-76
2022/01/26 04:52:32;;;;;;;22.08;10.48;;;-0.50;99.90;;;;;;5028129;28;20022;-77
2022/01/26 04:54:58;;;;;;;23.52;10.32;;;-0.50;99.90;;;;;;5028638;28;20026;-77
2022/01/26 04:57:23;;;;;;;23.17;9.65;;;-0.70;99.90;;;;;;5027093;28;20026;-76
2022/01/26 04:59:49;;;;;;;18.95;9.18;;;-0.70;99.90;;;;;;5027979;28;20052;-74
2022/01/26 05:02:15;;;;;;;23.48;9.50;;;-0.70;99.90;;;;;;5026707;28;20415;-74
2022/01/26 05:04:41;;;;;;;20.85;9.05;;;-0.80;99.90;;;;;;5027896;28;20072;-77
2022/01/26 05:07:06;;;;;;;25.25;10.70;;;-0.70;99.90;;;;;;5029258;28;20120;-74
2022/01/26 05:09:32;;;;;;;20.25;9.38;;;-0.70;99.90;;;;;;5027724;28;20440;-76
2022/01/26 05:12:00;;;;;;;21.10;10.43;;;-0.90;99.90;;;;;;5028289;28;20104;-77
2022/01/26 05:14:25;;;;;;;25.33;10.77;;;-0.80;99.90;;;;;;5026318;28;20080;-75
2022/01/26 05:16:51;;;;;;;19.73;10.50;;;-0.80;99.90;;;;;;5028010;28;20030;-75
2022/01/26 05:19:17;;;;;;;20.13;10.13;;;-0.80;99.90;;;;;;5028670;28;20452;-75
2022/01/26 05:21:43;;;;;;;20.35;10.00;;;-0.60;99.90;;;;;;5029016;28;20029;-75
2022/01/26 05:24:10;;;;;;;23.05;10.45;;;-0.70;99.90;;;;;;5027904;28;20025;-75
2022/01/26 05:26:40;;;;;;;17.70;9.57;;;-0.60;99.90;;;;;;5028098;28;20033;-75
2022/01/26 05:29:06;;;;;;;20.38;9.85;;;-0.60;99.90;;;;;;5029674;28;20057;-75
2022/01/26 05:31:32;;;;;;;17.95;9.13;;;-0.50;99.90;;;;;;5027351;28;20044;-75
2022/01/26 05:33:58;;;;;;;18.67;8.88;;;-0.50;99.90;;;;;;5029728;28;20032;-75
2022/01/26 05:36:25;;;;;;;22.42;9.52;;;-0.50;99.90;;;;;;5030429;28;20036;-74
2022/01/26 05:38:50;;;;;;;17.98;8.80;;;-0.50;99.90;;;;;;5034147;28;20026;-74
2022/01/26 05:41:22;;;;;;;18.05;8.90;;;-0.60;99.90;;;;;;5026389;28;20631;-75
2022/01/26 05:43:48;;;;;;;21.35;9.50;;;-0.60;99.90;;;;;;5032870;28;20111;-75
2022/01/26 05:46:21;;;;;;;16.65;8.40;;;-0.70;99.90;;;;;;5031993;28;20475;-75
2022/01/26 05:48:48;;;;;;;17.30;8.98;;;-0.60;99.90;;;;;;5037819;28;20123;-75
2022/01/26 05:51:15;;;;;;;18.42;9.40;;;-0.60;99.90;;;;;;5031264;28;20029;-75
2022/01/26 05:53:41;;;;;;;18.55;8.73;;;-0.60;99.90;;;;;;5030240;28;20159;-75
2022/01/26 05:56:08;;;;;;;19.52;9.13;;;-0.60;99.90;;;;;;5031275;28;20034;-75
2022/01/26 05:58:34;;;;;;;19.92;10.48;;;-0.60;99.90;;;;;;5031566;28;20026;-74
2022/01/26 06:01:01;;;;;;;18.35;9.25;;;-0.60;99.90;;;;;;5032908;28;20030;-75
2022/01/26 06:03:30;;;;;;;19.98;9.48;;;-0.40;99.90;;;;;;5030401;28;20048;-75
2022/01/26 06:05:56;;;;;;;24.55;9.88;;;-0.50;99.90;;;;;;5029442;28;20029;-75
2022/01/26 06:08:24;;;;;;;19.13;8.70;;;-0.50;99.90;;;;;;5033455;28;20021;-74
2022/01/26 06:10:51;;;;;;;19.15;8.85;;;-0.50;99.90;;;;;;5031206;28;20037;-75
2022/01/26 06:13:17;;;;;;;16.73;8.52;;;-0.30;99.90;;;;;;5031552;28;20136;-75
2022/01/26 06:15:43;;;;;;;20.02;9.32;;;-0.40;99.90;;;;;;5031765;28;20076;-75
2022/01/26 06:18:12;;;;;;;17.38;7.82;;;-0.30;99.90;;;;;;5030947;28;20017;-75
2022/01/26 06:20:39;;;;;;;17.70;7.82;;;-0.20;99.90;;;;;;5031296;28;20079;-75
2022/01/26 06:23:05;;;;;;;17.63;8.25;;;-0.20;99.90;;;;;;5030832;28;20814;-75
2022/01/26 06:25:31;;;;;;;18.80;8.25;;;-0.20;99.90;;;;;;5030342;28;20076;-75
2022/01/26 06:27:59;;;;;;;18.92;8.73;;;-0.40;99.90;;;;;;5032772;28;20033;-74
2022/01/26 06:30:25;;;;;;;17.63;7.90;;;-0.50;99.90;;;;;;5030740;28;20026;-75
2022/01/26 06:32:51;;;;;;;18.20;8.63;;;-0.60;99.90;;;;;;5030793;28;20033;-75
2022/01/26 06:35:17;;;;;;;22.40;9.15;;;-0.40;99.90;;;;;;5040924;28;20092;-75
2022/01/26 06:37:46;;;;;;;17.73;8.50;;;-0.50;99.90;;;;;;5030862;28;20433;-75
2022/01/26 06:40:13;;;;;;;18.75;8.55;;;-0.50;99.90;;;;;;5037451;28;20049;-74
2022/01/26 06:43:03;;;;;;;22.05;9.25;;;-0.30;99.90;;;;;;5029867;28;20026;-74
2022/01/26 06:45:28;;;;;;;20.15;8.65;;;-0.40;99.90;;;;;;5027913;28;20514;-77
2022/01/26 06:50:22;;;;;;;19.42;8.43;;;-0.40;99.90;;;;;;5030287;28;20029;-75
2022/01/26 06:52:48;;;;;;;21.30;9.55;;;-0.50;99.90;;;;;;5030262;28;20461;-75
2022/01/26 06:55:18;;;;;;;20.83;9.25;;;-0.50;99.90;;;;;;5030191;28;20022;-75
2022/01/26 06:57:44;;;;;;;17.98;7.70;;;-0.40;99.90;;;;;;5031070;28;20049;-75
2022/01/26 07:00:11;;;;;;;17.02;8.35;;;-0.40;99.90;;;;;;5029580;28;20033;-75
2022/01/26 07:02:39;;;;;;;19.73;7.88;;;-0.50;99.90;;;;;;5035314;28;20030;-74
2022/01/26 07:05:14;;;;;;;15.60;7.32;;;-0.40;99.90;;;;;;5029338;28;20034;-75
2022/01/26 07:07:41;;;;;;;17.13;7.38;;;-0.50;99.90;;;;;;5030223;28;20029;-75
2022/01/26 07:10:09;;;;;;;21.38;9.10;;;-0.50;99.90;;;;;;5031181;28;20029;-81
2022/01/26 07:12:35;;;;;;;19.67;9.10;;;-0.50;99.90;;;;;;5029779;28;20029;-78
2022/01/26 07:22:55;;;;;;;16.92;7.50;;;-0.60;99.90;;;;;;5034533;28;20021;-81
2022/01/26 07:25:21;;;;;;;15.13;7.15;;;-0.50;99.90;;;;;;5032518;28;20569;-78
2022/01/26 07:27:47;;;;;;;17.45;7.13;;;-0.60;99.90;;;;;;5031067;28;20025;-79
2022/01/26 07:30:12;;;;;;;16.58;7.15;;;-0.40;99.90;;;;;;5027824;28;20033;-80
2022/01/26 07:32:38;;;;;;;22.80;8.32;;;-0.30;99.90;;;;;;5029068;28;20406;-79
2022/01/26 07:35:06;;;;;;;16.80;7.57;;;-0.20;99.90;;;;;;5020048;28;20410;-80
2022/01/26 07:37:32;;;;;;;17.58;8.32;;;-0.20;99.90;;;;;;5028193;28;20018;-80
2022/01/26 07:40:06;;;;;;;17.10;7.10;;;-0.10;99.90;;;;;;5029169;28;20037;-80
2022/01/26 07:42:33;;;;;;;17.25;7.40;;;-0.10;99.90;;;;;;5028331;28;20025;-78
2022/01/26 07:45:00;;;;;;;16.75;7.00;;;-0.20;99.90;;;;;;5030240;28;20018;-80
2022/01/26 07:47:26;;;;;;;17.48;7.30;;;-0.10;99.90;;;;;;5028341;28;20065;-79
2022/01/26 07:49:56;;;;;;;15.35;7.28;;;-0.10;99.90;;;;;;5030784;28;20044;-79
2022/01/26 07:52:23;;;;;;;15.30;7.70;;;-0.10;99.90;;;;;;5026256;28;20108;-79
2022/01/26 07:54:51;;;;;;;15.23;7.53;;;0.00;99.90;;;;;;5028757;28;20025;-80
2022/01/26 07:57:19;;;;;;;14.27;7.97;;;-0.20;99.90;;;;;;5028882;28;20502;-79
2022/01/26 07:59:44;;;;;;;18.15;7.30;;;0.00;99.90;;;;;;5027237;28;20037;-79
2022/01/26 08:02:10;;;;;;;14.20;7.28;;;0.00;99.90;;;;;;5033598;28;20533;-79
2022/01/26 08:04:36;;;;;;;13.73;6.90;;;0.00;99.90;;;;;;5026869;28;20395;-79
2022/01/26 08:07:02;;;;;;;16.52;6.80;;;0.00;99.90;;;;;;5028738;28;20121;-79
2022/01/26 08:09:27;;;;;;;17.35;6.97;;;0.10;99.90;;;;;;5025886;28;20072;-76
2022/01/26 08:11:53;;;;;;;14.45;7.80;;;0.30;99.90;;;;;;5026089;28;20124;-79
2022/01/26 08:14:19;;;;;;;19.25;7.45;;;0.40;99.90;;;;;;5027085;28;20112;-76
2022/01/26 08:16:45;;;;;;;17.80;6.82;;;0.50;99.90;;;;;;5026599;28;20025;-76
2022/01/26 08:19:13;;;;;;;17.88;8.88;;;0.70;99.90;;;;;;5031732;28;20029;-76
2022/01/26 08:21:39;;;;;;;12.77;7.00;;;0.80;99.90;;;;;;5026334;28;20108;-76
2022/01/26 08:24:13;;;;;;;14.32;6.03;;;0.90;99.90;;;;;;5026909;28;20104;-79
2022/01/26 08:26:43;;;;;;;13.70;6.85;;;0.90;99.90;;;;;;5026396;28;20051;-76
2022/01/26 08:29:16;;;;;;;11.48;6.03;;;0.90;99.90;;;;;;5015396;28;20037;-76
2022/01/26 08:31:42;;;;;;;12.52;6.75;;;0.90;99.90;;;;;;5026203;28;20141;-74
2022/01/26 08:34:08;;;;;;;15.80;6.85;;;1.20;99.90;;;;;;5023401;28;20577;-74
2022/01/26 08:36:34;;;;;;;12.98;6.88;;;1.30;99.90;;;;;;5028132;28;20025;-74
2022/01/26 08:39:00;;;;;;;11.70;6.72;;;1.40;99.90;;;;;;5032558;28;20025;-74
2022/01/26 08:41:26;;;;;;;10.40;6.15;;;1.60;99.90;;;;;;5029739;28;20402;-76
2022/01/26 08:43:51;;;;;;;15.30;7.72;;;1.60;99.90;;;;;;5028435;28;20033;-76
2022/01/26 08:46:20;;;;;;;12.23;7.15;;;1.50;99.90;;;;;;5027638;28;20049;-76
2022/01/26 08:48:47;;;;;;;11.65;6.32;;;1.50;99.90;;;;;;5033923;28;20029;-76
2022/01/26 08:51:14;;;;;;;12.40;7.30;;;1.60;99.90;;;;;;5028367;28;20036;-76
2022/01/26 08:53:39;;;;;;;13.57;6.70;;;1.70;99.90;;;;;;5026482;28;20022;-74
2022/01/26 08:56:05;;;;;;;18.85;8.23;;;1.50;99.90;;;;;;5033425;28;20075;-75
2022/01/26 08:58:31;;;;;;;14.13;7.55;;;1.50;99.90;;;;;;5032184;28;20451;-77
2022/01/26 09:00:57;;;;;;;14.57;7.35;;;1.60;99.90;;;;;;5026379;28;20091;-77
2022/01/26 09:03:23;;;;;;;11.27;7.00;;;1.80;99.90;;;;;;5030912;28;20124;-77
2022/01/26 09:05:49;;;;;;;13.27;7.03;;;1.80;99.90;;;;;;5024623;28;20064;-75
2022/01/26 09:08:17;;;;;;;11.90;6.95;;;2.30;99.90;;;;;;5036120;28;20089;-75
2022/01/26 09:10:42;;;;;;;14.00;7.20;;;2.30;99.90;;;;;;5031209;28;20505;-75
2022/01/26 09:13:08;;;;;;;13.93;7.07;;;2.50;99.90;;;;;;5028958;28;20040;-78
2022/01/26 09:15:34;;;;;;;14.20;7.95;;;2.40;99.90;;;;;;5026101;28;20515;-78
2022/01/26 09:18:03;;;;;;;12.45;7.68;;;2.20;99.90;;;;;;5031547;28;20388;-77
2022/01/26 09:20:31;;;;;;;15.57;7.70;;;2.10;99.90;;;;;;5028909;28;20087;-78
2022/01/26 09:22:56;;;;;;;16.75;8.07;;;2.30;99.90;;;;;;5025631;28;20060;-77
2022/01/26 09:25:22;;;;;;;12.98;7.88;;;3.00;99.90;;;;;;5026942;28;20487;-79
2022/01/26 09:27:48;;;;;;;12.95;7.43;;;3.60;99.90;;;;;;5025976;28;20542;-79
2022/01/26 09:30:14;;;;;;;13.63;7.75;;;3.40;99.90;;;;;;5029971;28;20570;-79
2022/01/26 09:32:39;;;;;;;14.48;7.63;;;3.90;99.90;;;;;;5031095;28;20033;-79
2022/01/26 09:35:07;;;;;;;13.27;8.07;;;4.80;99.90;;;;;;5031153;28;20130;-77
2022/01/26 09:37:33;;;;;;;14.88;8.27;;;4.00;99.90;;;;;;5032384;28;20045;-79
2022/01/26 09:39:59;;;;;;;13.48;7.45;;;4.00;99.90;;;;;;5026696;28;20030;-79
2022/01/26 09:42:25;;;;;;;15.35;8.00;;;4.00;99.90;;;;;;5027078;28;20029;-77
2022/01/26 09:44:50;;;;;;;17.88;9.55;;;3.50;99.90;;;;;;5028969;28;20502;-79
2022/01/26 09:47:16;;;;;;;18.42;8.25;;;3.40;99.90;;;;;;5028784;28;20049;-79
2022/01/26 09:49:43;;;;;;;19.73;9.35;;;3.60;99.90;;;;;;5029089;28;20574;-76
2022/01/26 09:52:30;;;;;;;17.52;8.50;;;3.90;99.90;;;;;;5032873;28;20044;-79
2022/01/26 09:55:03;;;;;;;22.27;10.43;;;3.50;99.90;;;;;;5030547;28;20521;-78
2022/01/26 09:57:29;;;;;;;17.33;10.10;;;3.40;99.90;;;;;;5027273;28;20048;-79
2022/01/26 09:59:56;;;;;;;18.65;10.18;;;3.50;99.90;;;;;;5028309;28;20030;-79
2022/01/26 10:02:30;;;;;;;19.73;10.02;;;3.70;99.90;;;;;;5028208;28;20028;-78
2022/01/26 10:05:01;;;;;;;19.38;11.10;;;3.60;99.90;;;;;;5026367;28;20025;-78
2022/01/26 10:18:09;;;;;;;19.27;10.93;;;3.90;99.90;;;;;;5028147;28;20022;-78
2022/01/26 10:20:58;;;;;;;23.42;11.77;;;4.00;99.90;;;;;;5027642;28;20076;-78
2022/01/26 10:23:25;;;;;;;21.58;11.43;;;4.10;99.90;;;;;;5029327;28;20031;-78
2022/01/26 10:26:05;;;;;;;19.92;10.88;;;4.10;99.90;;;;;;5033443;28;20108;-78
2022/01/26 10:28:50;;;;;;;19.90;11.52;;;4.10;99.90;;;;;;5021665;28;20188;-78
2022/01/26 10:31:18;;;;;;;19.58;10.48;;;4.10;99.90;;;;;;5029932;28;20266;-78
2022/01/26 10:33:57;;;;;;;22.17;11.20;;;4.10;99.90;;;;;;5038605;28;20533;-78
2022/01/26 10:36:24;;;;;;;22.15;11.18;;;4.10;99.90;;;;;;5028678;28;20026;-75
2022/01/26 10:39:06;;;;;;;22.10;13.55;;;4.10;99.90;;;;;;5027841;28;20022;-75
2022/01/26 10:41:32;;;;;;;24.50;12.30;;;4.10;99.90;;;;;;5019640;28;20025;-77
2022/01/26 10:44:00;;;;;;;24.20;12.70;;;4.20;99.90;;;;;;5027853;28;20048;-77
2022/01/26 10:46:30;;;;;;;27.45;13.27;;;4.10;99.90;;;;;;5028059;28;20049;-77
2022/01/26 10:49:42;;;;;;;23.00;11.93;;;4.10;99.90;;;;;;5037227;28;20066;-75
2022/01/26 10:52:54;;;;;;;24.05;12.07;;;4.20;99.90;;;;;;5030159;28;20091;-77
2022/01/26 10:55:07;;;;;;;28.30;14.25;;;4.30;99.90;;;;;;5028876;28;20060;-77
2022/01/26 10:57:34;;;;;;;25.38;14.00;;;4.50;99.90;;;;;;5028347;28;20064;-76
2022/01/26 11:00:02;;;;;;;23.50;13.15;;;4.50;99.90;;;;;;5031042;28;20036;-75
2022/01/26 11:02:31;;;;;;;25.55;12.95;;;4.60;99.90;;;;;;5026521;28;20111;-76
2022/01/26 11:04:57;;;;;;;26.13;14.13;;;4.60;99.90;;;;;;5027036;28;20029;-76
2022/01/26 11:07:36;;;;;;;23.02;13.77;;;4.80;99.90;;;;;;5028222;28;20075;-75
2022/01/26 11:10:05;;;;;;;28.73;14.48;;;5.00;99.90;;;;;;5029124;28;20100;-76
2022/01/26 11:12:31;;;;;;;31.45;16.42;;;5.30;99.90;;;;;;5027111;28;20135;-76
2022/01/26 11:15:07;;;;;;;27.88;15.27;;;5.40;99.90;;;;;;5026926;28;20033;-76
2022/01/26 11:17:37;;;;;;;37.95;15.65;;;5.20;99.90;;;;;;5027654;28;20022;-76
2022/01/26 11:20:34;;;;;;;29.42;14.27;;;5.10;99.90;;;;;;5023258;28;20024;-75
2022/01/26 11:23:04;;;;;;;30.95;15.20;;;5.10;99.90;;;;;;5027814;28;20026;-76
2022/01/26 11:25:42;;;;;;;31.95;16.88;;;5.20;99.90;;;;;;5026170;28;20292;-75
2022/01/26 11:28:23;;;;;;;32.00;16.80;;;5.50;99.90;;;;;;5028426;28;20041;-76
2022/01/26 11:30:51;;;;;;;31.95;16.90;;;5.70;99.90;;;;;;5028574;28;20028;-76
2022/01/26 11:33:19;;;;;;;34.05;17.80;;;5.60;99.90;;;;;;5026411;28;20029;-75
2022/01/26 11:35:48;;;;;;;32.65;18.63;;;5.90;99.90;;;;;;5028568;28;20040;-79
2022/01/26 11:46:35;;;;;;;28.27;16.17;;;5.70;99.90;;;;;;5024830;28;20128;-80
2022/01/26 11:49:00;;;;;;;32.13;17.55;;;5.60;99.90;;;;;;5028385;28;20037;-80
2022/01/26 11:51:38;;;;;;;32.97;17.02;;;5.50;99.90;;;;;;5026967;28;20493;-77
2022/01/26 11:54:14;;;;;;;31.30;16.70;;;5.50;99.90;;;;;;5030133;28;20026;-77
2022/01/26 11:57:05;;;;;;;34.58;16.27;;;5.60;99.90;;;;;;5027731;28;20521;-77
2022/01/26 11:59:33;;;;;;;29.33;16.80;;;5.80;99.90;;;;;;5026977;28;20049;-77
2022/01/26 12:02:04;;;;;;;36.28;18.35;;;5.90;99.90;;;;;;5027125;28;20025;-78
2022/01/26 12:04:35;;;;;;;33.80;18.25;;;6.00;99.90;;;;;;5019566;28;20030;-77
2022/01/26 12:07:18;;;;;;;39.70;22.23;;;6.10;99.90;;;;;;5028011;28;20025;-78
2022/01/26 12:09:44;;;;;;;40.97;21.55;;;6.80;99.90;;;;;;5027981;28;20040;-77
2022/01/26 12:12:17;;;;;;;36.90;20.35;;;6.80;99.90;;;;;;5026931;28;20057;-77
2022/01/26 12:14:46;;;;;;;42.58;21.55;;;6.60;99.90;;;;;;5031760;28;20028;-79
2022/01/26 12:17:25;;;;;;;39.35;20.95;;;6.30;99.90;;;;;;5026391;28;20475;-77
2022/01/26 12:35:08;;;;;;;38.33;19.42;;;6.60;99.90;;;;;;5026671;28;20807;-77
2022/01/26 12:37:55;;;;;;;33.40;19.63;;;6.70;99.90;;;;;;5045859;28;20128;-79
2022/01/26 12:43:48;;;;;;;32.20;17.63;;;7.10;99.90;;;;;;5042731;28;20028;-80
2022/01/26 12:46:32;;;;;;;30.08;17.00;;;7.00;99.90;;;;;;5041603;28;20044;-78
2022/01/26 12:49:01;;;;;;;29.02;16.33;;;6.80;99.90;;;;;;5049576;28;20040;-77
2022/01/26 12:51:28;;;;;;;28.63;16.17;;;6.80;99.90;;;;;;5045275;28;20091;-78
2022/01/26 12:53:59;;;;;;;27.15;15.32;;;6.80;99.90;;;;;;5044877;28;20040;-77
2022/01/26 12:56:30;;;;;;;25.45;14.52;;;6.80;99.90;;;;;;5043936;28;20037;-79
2022/01/26 12:59:05;;;;;;;23.98;13.85;;;6.80;99.90;;;;;;5044166;28;20330;-81
2022/01/26 13:01:31;;;;;;;24.25;13.65;;;6.70;99.90;;;;;;5043176;28;20033;-81
2022/01/26 13:03:59;;;;;;;25.27;13.50;;;6.70;99.90;;;;;;5039813;28;20033;-81
2022/01/26 13:06:49;;;;;;;23.15;13.38;;;6.90;99.90;;;;;;5045466;28;20068;-81
2022/01/26 13:09:16;;;;;;;21.85;12.05;;;6.90;99.90;;;;;;5033391;28;20045;-80
2022/01/26 13:11:45;;;;;;;21.02;13.02;;;6.90;99.90;;;;;;5041922;28;20036;-81
2022/01/26 13:14:33;;;;;;;22.35;14.23;;;7.00;99.90;;;;;;5022339;28;20040;-80
2022/01/26 13:19:56;;;;;;;23.90;13.23;;;7.10;99.90;;;;;;5026431;28;20025;-79
2022/01/26 13:30:44;;;;;;;24.15;14.93;;;7.80;99.90;;;;;;5023232;28;20033;-81
2022/01/26 13:39:04;;;;;;;23.50;12.93;;;7.70;99.90;;;;;;5025286;28;20060;-80
2022/01/26 13:49:45;;;;;;;22.90;11.70;;;7.60;99.90;;;;;;5024296;28;20030;-81
2022/01/26 13:55:28;;;;;;;21.77;11.07;;;7.70;99.90;;;;;;5025617;28;20037;-81
2022/01/26 14:00:08;;;;;;;19.80;11.15;;;7.80;99.90;;;;;;5026073;28;20052;-79
2022/01/26 14:02:35;;;;;;;18.65;10.70;;;8.10;99.90;;;;;;5024497;28;20112;-82
2022/01/26 14:05:01;;;;;;;16.58;10.60;;;7.90;99.90;;;;;;5017808;28;20041;-81
2022/01/26 14:07:27;;;;;;;17.83;10.20;;;7.90;99.90;;;;;;5026192;28;20464;-83
2022/01/26 14:09:52;;;;;;;15.63;9.38;;;7.70;99.90;;;;;;5027965;28;20029;-82
2022/01/26 14:12:23;;;;;;;14.85;9.27;;;7.70;99.90;;;;;;5028780;28;20558;-82
2022/01/26 14:14:53;;;;;;;17.05;8.82;;;7.80;99.90;;;;;;5027449;28;20071;-82
2022/01/26 14:17:28;;;;;;;15.00;9.68;;;7.70;99.90;;;;;;5029298;28;20033;-82
2022/01/26 14:20:09;;;;;;;15.95;9.80;;;7.60;99.90;;;;;;5027305;28;20038;-80
2022/01/26 14:27:52;;;;;;;17.35;9.65;;;7.80;99.90;;;;;;5031510;28;20052;-81
2022/01/26 14:55:15;;;;;;;16.88;10.90;;;8.40;99.90;;;;;;5030018;28;20473;-80
2022/01/26 15:30:35;;;;;;;12.88;8.55;;;8.20;99.90;;;;;;5014843;28;20043;-80
2022/01/26 15:41:05;;;;;;;10.63;7.05;;;8.20;99.90;;;;;;5016253;28;20103;-81
2022/01/26 15:51:23;;;;;;;12.15;6.43;;;8.00;99.90;;;;;;5031101;28;20033;-81
2022/01/26 16:05:12;;;;;;;9.45;6.45;;;8.00;99.90;;;;;;5027632;28;20063;-79
2022/01/26 16:07:47;;;;;;;9.90;6.28;;;7.90;99.90;;;;;;5023743;28;20573;-79
2022/01/26 16:26:17;;;;;;;9.23;5.72;;;7.90;99.90;;;;;;5038990;28;20062;-80
2022/01/26 17:43:39;;;;;;;24.13;13.23;;;5.80;99.90;;;;;;4984810;28;20065;-82
2022/01/26 18:15:59;;;;;;;20.73;12.48;;;4.80;99.90;;;;;;5030798;28;20554;-78
2022/01/26 18:32:07;;;;;;;17.98;10.60;;;4.30;99.90;;;;;;5028618;28;20338;-78
2022/01/26 18:40:33;;;;;;;21.67;11.90;;;3.90;99.90;;;;;;5030970;28;20517;-80
2022/01/26 18:51:10;;;;;;;20.10;11.88;;;3.60;99.90;;;;;;5019973;28;20048;-79
2022/01/26 18:53:36;;;;;;;22.48;11.77;;;3.50;99.90;;;;;;5027156;28;20034;-79
2022/01/26 18:56:02;;;;;;;19.35;11.25;;;3.50;99.90;;;;;;5023528;28;20031;-79
2022/01/26 18:58:28;;;;;;;18.88;11.25;;;3.60;99.90;;;;;;5028446;28;20487;-79
2022/01/26 19:00:53;;;;;;;21.60;12.20;;;3.50;99.90;;;;;;5027926;28;20053;-79
2022/01/26 19:03:19;;;;;;;23.05;12.23;;;3.40;99.90;;;;;;5027688;28;20457;-79
2022/01/26 19:05:45;;;;;;;21.80;12.82;;;3.50;99.90;;;;;;5021565;28;20121;-79
2022/01/26 19:08:11;;;;;;;22.67;13.15;;;3.50;99.90;;;;;;5025918;28;20079;-79
2022/01/26 19:10:37;;;;;;;25.20;14.02;;;3.50;99.90;;;;;;5017756;28;20038;-79
2022/01/26 19:13:02;;;;;;;25.20;15.00;;;3.50;99.90;;;;;;5030428;28;20037;-79
2022/01/26 19:15:31;;;;;;;27.75;15.38;;;3.40;99.90;;;;;;5025951;28;20022;-79
2022/01/26 19:18:22;;;;;;;32.70;16.55;;;3.30;99.90;;;;;;5022364;28;20549;-79
2022/01/26 19:21:06;;;;;;;36.75;16.95;;;3.20;99.90;;;;;;5025004;28;20498;-79
2022/01/26 19:26:13;;;;;;;27.73;15.70;;;2.80;99.90;;;;;;5018806;28;20030;-79
2022/01/26 19:28:44;;;;;;;33.85;17.17;;;2.80;99.90;;;;;;5026134;28;20573;-78
2022/01/26 19:44:46;;;;;;;31.75;16.10;;;2.60;99.90;;;;;;5018886;28;20514;-78